Time;durP1;ratioP1;P1;durP2;ratioP2;P2;SDS_P1;SDS_P2;PMS_P1;PMS_P2;Temp;Humidity;BMP_temperature;BMP_pressure;BME280_temperature;BME280_humidity;BME280_pressure;Samples;Min_cycle;Max_cycle;Signal;HPM_P1;HPM_P2
2023/06/02 00:01:21;;;;;;;;;;;;;;;;;;5054463;28;19923;-19
2023/06/02 00:03:47;;;;;;;;;;;;;;;;;;5054147;28;20267;-19
2023/06/02 00:06:18;;;;;;;;;;;;;;;;;;5054366;28;19915;-20
2023/06/02 00:08:44;;;;;;;;;;;;;;;;;;5054473;28;19916;-20
2023/06/02 00:11:10;;;;;;;;;;;;;;;;;;5054313;28;19963;-21
2023/06/02 00:13:36;;;;;;;;;;;;;;;;;;5058211;28;19908;-19
2023/06/02 00:16:03;;;;;;;;;;;;;;;;;;5058353;28;20310;-20
2023/06/02 00:18:32;;;;;;;;;;;;;;;;;;5058305;28;20000;-20
2023/06/02 00:20:59;;;;;;;;;;;;;;;;;;5058533;28;19909;-20
2023/06/02 00:23:29;;;;;;;;;;;;;;;;;;5058351;28;20358;-20
2023/06/02 00:25:54;;;;;;;;;;;;;;;;;;5058133;28;19909;-20
2023/06/02 00:28:21;;;;;;;;;;;;;;;;;;5057116;28;19978;-18
2023/06/02 00:30:47;;;;;;;;;;;;;;;;;;5058809;28;19982;-19
2023/06/02 00:33:12;;;;;;;;;;;;;;;;;;5058220;28;20333;-19
2023/06/02 00:35:38;;;;;;;;;;;;;;;;;;5058329;28;19909;-21
2023/06/02 00:38:04;;;;;;;;;;;;;;;;;;5058240;28;20009;-19
2023/06/02 00:40:30;;;;;;;;;;;;;;;;;;5058003;28;19968;-19
2023/06/02 00:42:56;;;;;;;;;;;;;;;;;;5056768;28;19919;-20
2023/06/02 00:45:22;;;;;;;;;;;;;;;;;;5058590;28;19992;-19
2023/06/02 00:47:48;;;;;;;;;;;;;;;;;;5058099;28;19913;-20
2023/06/02 00:50:14;;;;;;;;;;;;;;;;;;5057725;28;20302;-19
2023/06/02 00:52:40;;;;;;;;;;;;;;;;;;5057872;28;19971;-19
2023/06/02 00:55:07;;;;;;;;;;;;;;;;;;5057563;28;19909;-19
2023/06/02 00:57:33;;;;;;;;;;;;;;;;;;5057578;28;20348;-19
2023/06/02 00:59:59;;;;;;;;;;;;;;;;;;5057810;28;19948;-19
2023/06/02 01:02:26;;;;;;;;;;;;;;;;;;5057474;28;20256;-19
2023/06/02 01:04:52;;;;;;;;;;;;;;;;;;5057281;28;19995;-19
2023/06/02 01:07:23;;;;;;;;;;;;;;;;;;5057415;28;20355;-20
2023/06/02 01:09:49;;;;;;;;;;;;;;;;;;5056434;28;20328;-20
2023/06/02 01:12:15;;;;;;;;;;;;;;;;;;5057844;28;19920;-20
2023/06/02 01:14:40;;;;;;;;;;;;;;;;;;5057569;28;19913;-20
2023/06/02 01:17:06;;;;;;;;;;;;;;;;;;5057236;28;19909;-19
2023/06/02 01:19:32;;;;;;;;;;;;;;;;;;5056284;28;19909;-19
2023/06/02 01:21:58;;;;;;;;;;;;;;;;;;5057086;28;19916;-20
2023/06/02 01:24:25;;;;;;;;;;;;;;;;;;5056382;28;19944;-21
2023/06/02 01:26:51;;;;;;;;;;;;;;;;;;5057021;28;19928;-21
2023/06/02 01:29:17;;;;;;;;;;;;;;;;;;5057045;28;19909;-20
2023/06/02 01:31:46;;;;;;;;;;;;;;;;;;5056850;28;20236;-21
2023/06/02 01:34:12;;;;;;;;;;;;;;;;;;5057154;28;19940;-19
2023/06/02 01:36:38;;;;;;;;;;;;;;;;;;5056888;28;20331;-19
2023/06/02 01:39:04;;;;;;;;;;;;;;;;;;5056773;28;20298;-19
2023/06/02 01:41:30;;;;;;;;;;;;;;;;;;5057320;28;20413;-19
2023/06/02 01:43:56;;;;;;;;;;;;;;;;;;5056556;28;19913;-18
2023/06/02 01:46:22;;;;;;;;;;;;;;;;;;5055650;28;19974;-19
2023/06/02 01:48:48;;;;;;;;;;;;;;;;;;5056942;28;19909;-20
2023/06/02 01:51:14;;;;;;;;;;;;;;;;;;5056578;28;19982;-20
2023/06/02 01:53:40;;;;;;;;;;;;;;;;;;5056529;28;19928;-20
2023/06/02 01:56:06;;;;;;;;;;;;;;;;;;5056471;28;20340;-20
2023/06/02 01:58:32;;;;;;;;;;;;;;;;;;5056410;28;19908;-19
2023/06/02 02:00:58;;;;;;;;;;;;;;;;;;5056469;28;19959;-19
2023/06/02 02:03:24;;;;;;;;;;;;;;;;;;5056118;28;20319;-19
2023/06/02 02:05:50;;;;;;;;;;;;;;;;;;5055423;28;19944;-20
2023/06/02 02:08:17;;;;;;;;;;;;;;;;;;5055222;28;19955;-20
2023/06/02 02:10:42;;;;;;;;;;;;;;;;;;5056498;28;19932;-21
2023/06/02 02:13:08;;;;;;;;;;;;;;;;;;5056089;28;20328;-19
2023/06/02 02:15:34;;;;;;;;;;;;;;;;;;5056108;28;19909;-20
2023/06/02 02:18:00;;;;;;;;;;;;;;;;;;5056323;28;19912;-19
2023/06/02 02:20:26;;;;;;;;;;;;;;;;;;5056303;28;19924;-19
2023/06/02 02:22:52;;;;;;;;;;;;;;;;;;5055798;28;20030;-20
2023/06/02 02:25:18;;;;;;;;;;;;;;;;;;5056011;28;19944;-20
2023/06/02 02:27:44;;;;;;;;;;;;;;;;;;5055923;28;19909;-22
2023/06/02 02:30:10;;;;;;;;;;;;;;;;;;5056122;28;19924;-19
2023/06/02 02:32:36;;;;;;;;;;;;;;;;;;5056044;28;19913;-19
2023/06/02 02:35:03;;;;;;;;;;;;;;;;;;5055714;28;20348;-18
2023/06/02 02:37:29;;;;;;;;;;;;;;;;;;5055715;28;19908;-19
2023/06/02 02:39:55;;;;;;;;;;;;;;;;;;5055648;28;19909;-19
2023/06/02 02:42:21;;;;;;;;;;;;;;;;;;5055600;28;20371;-20
2023/06/02 02:44:47;;;;;;;;;;;;;;;;;;5056047;28;20316;-20
2023/06/02 02:47:13;;;;;;;;;;;;;;;;;;5055532;28;19909;-19
2023/06/02 02:49:39;;;;;;;;;;;;;;;;;;5055483;28;19987;-20
2023/06/02 02:52:05;;;;;;;;;;;;;;;;;;5055397;28;19909;-18
2023/06/02 02:54:31;;;;;;;;;;;;;;;;;;5055370;28;19913;-20
2023/06/02 02:56:57;;;;;;;;;;;;;;;;;;5055668;28;19936;-20
2023/06/02 02:59:23;;;;;;;;;;;;;;;;;;5055363;28;19909;-19
2023/06/02 03:01:49;;;;;;;;;;;;;;;;;;5054171;28;20008;-20
2023/06/02 03:04:21;;;;;;;;;;;;;;;;;;5055150;28;19963;-19
2023/06/02 03:06:48;;;;;;;;;;;;;;;;;;5055221;28;19916;-20
2023/06/02 03:09:14;;;;;;;;;;;;;;;;;;5055172;28;20363;-19
2023/06/02 03:11:40;;;;;;;;;;;;;;;;;;5055129;28;19970;-19
2023/06/02 03:14:06;;;;;;;;;;;;;;;;;;5054943;28;19909;-19
2023/06/02 03:16:34;;;;;;;;;;;;;;;;;;5055070;28;19916;-19
2023/06/02 03:19:00;;;;;;;;;;;;;;;;;;5054958;28;19966;-19
2023/06/02 03:21:26;;;;;;;;;;;;;;;;;;5053956;28;19948;-19
2023/06/02 03:23:53;;;;;;;;;;;;;;;;;;5054765;28;19930;-19
2023/06/02 03:26:25;;;;;;;;;;;;;;;;;;5055953;28;19917;-21
2023/06/02 03:28:51;;;;;;;;;;;;;;;;;;5053901;28;19924;-20
2023/06/02 03:31:17;;;;;;;;;;;;;;;;;;5054795;28;19938;-20
2023/06/02 03:33:42;;;;;;;;;;;;;;;;;;5054747;28;20201;-19
2023/06/02 03:36:09;;;;;;;;;;;;;;;;;;5054775;28;20396;-20
2023/06/02 03:38:35;;;;;;;;;;;;;;;;;;5053702;28;20221;-18
2023/06/02 03:41:01;;;;;;;;;;;;;;;;;;5055011;28;19917;-19
2023/06/02 03:43:27;;;;;;;;;;;;;;;;;;5054485;28;19913;-20
2023/06/02 03:45:53;;;;;;;;;;;;;;;;;;5054319;28;19913;-21
2023/06/02 03:48:19;;;;;;;;;;;;;;;;;;5053118;28;20012;-21
2023/06/02 03:50:45;;;;;;;;;;;;;;;;;;5054420;28;19909;-20
2023/06/02 03:53:11;;;;;;;;;;;;;;;;;;5054472;28;19912;-20
2023/06/02 03:55:37;;;;;;;;;;;;;;;;;;5054406;28;20347;-19
2023/06/02 03:58:03;;;;;;;;;;;;;;;;;;5054529;28;20302;-20
2023/06/02 04:00:29;;;;;;;;;;;;;;;;;;5054632;28;19909;-19
2023/06/02 04:02:55;;;;;;;;;;;;;;;;;;5054071;28;20281;-20
2023/06/02 04:05:21;;;;;;;;;;;;;;;;;;5054065;28;19920;-20
2023/06/02 04:07:48;;;;;;;;;;;;;;;;;;5053867;28;19909;-21
2023/06/02 04:10:14;;;;;;;;;;;;;;;;;;5052818;28;19909;-19
2023/06/02 04:12:40;;;;;;;;;;;;;;;;;;5054012;28;19912;-19
2023/06/02 04:15:06;;;;;;;;;;;;;;;;;;5054574;28;19966;-21
2023/06/02 04:17:32;;;;;;;;;;;;;;;;;;5053807;28;19999;-20
2023/06/02 04:19:58;;;;;;;;;;;;;;;;;;5053914;28;20332;-20
2023/06/02 04:22:24;;;;;;;;;;;;;;;;;;5054109;28;19970;-20
2023/06/02 04:24:50;;;;;;;;;;;;;;;;;;5053908;28;19998;-20
2023/06/02 04:27:16;;;;;;;;;;;;;;;;;;5053902;28;19955;-19
2023/06/02 04:29:42;;;;;;;;;;;;;;;;;;5053980;28;20350;-21
2023/06/02 04:32:08;;;;;;;;;;;;;;;;;;5053810;28;20236;-21
2023/06/02 04:34:34;;;;;;;;;;;;;;;;;;5053820;28;20314;-21
2023/06/02 04:37:00;;;;;;;;;;;;;;;;;;5053724;28;19940;-19
2023/06/02 04:39:26;;;;;;;;;;;;;;;;;;5052712;28;19916;-20
2023/06/02 04:41:56;;;;;;;;;;;;;;;;;;5052822;28;19909;-19
2023/06/02 04:44:22;;;;;;;;;;;;;;;;;;5053680;28;19913;-20
2023/06/02 04:46:49;;;;;;;;;;;;;;;;;;5053566;28;19920;-20
2023/06/02 04:49:15;;;;;;;;;;;;;;;;;;5053685;28;20251;-19
2023/06/02 04:51:41;;;;;;;;;;;;;;;;;;5052584;28;19913;-21
2023/06/02 04:54:07;;;;;;;;;;;;;;;;;;5052908;28;20058;-21
2023/06/02 04:56:34;;;;;;;;;;;;;;;;;;5053959;28;19908;-21
2023/06/02 04:59:00;;;;;;;;;;;;;;;;;;5055014;28;19909;-20
2023/06/02 05:01:28;;;;;;;;;;;;;;;;;;5057292;28;19909;-20
2023/06/02 05:03:54;;;;;;;;;;;;;;;;;;5056784;28;19916;-20
2023/06/02 05:06:20;;;;;;;;;;;;;;;;;;5057185;28;20023;-20
2023/06/02 05:08:46;;;;;;;;;;;;;;;;;;5057393;28;19908;-20
2023/06/02 05:11:12;;;;;;;;;;;;;;;;;;5057190;28;19919;-20
2023/06/02 05:13:38;;;;;;;;;;;;;;;;;;5055913;28;19909;-19
2023/06/02 05:16:04;;;;;;;;;;;;;;;;;;5056957;28;19908;-19
2023/06/02 05:18:30;;;;;;;;;;;;;;;;;;5056892;28;19975;-19
2023/06/02 05:20:56;;;;;;;;;;;;;;;;;;5056922;28;19943;-19
2023/06/02 05:23:22;;;;;;;;;;;;;;;;;;5055674;28;19916;-21
2023/06/02 05:25:48;;;;;;;;;;;;;;;;;;5055731;28;19908;-20
2023/06/02 05:28:14;;;;;;;;;;;;;;;;;;5057055;28;19909;-20
2023/06/02 05:30:40;;;;;;;;;;;;;;;;;;5056865;28;19908;-19
2023/06/02 05:33:06;;;;;;;;;;;;;;;;;;5057285;28;19962;-19
2023/06/02 05:35:32;;;;;;;;;;;;;;;;;;5056788;28;19913;-19
2023/06/02 05:37:58;;;;;;;;;;;;;;;;;;5056657;28;19979;-20
2023/06/02 05:40:24;;;;;;;;;;;;;;;;;;5056665;28;19908;-20
2023/06/02 05:42:50;;;;;;;;;;;;;;;;;;5056288;28;19915;-21
2023/06/02 05:45:16;;;;;;;;;;;;;;;;;;5056237;28;20344;-20
2023/06/02 05:47:42;;;;;;;;;;;;;;;;;;5056203;28;19928;-19
2023/06/02 05:50:08;;;;;;;;;;;;;;;;;;5056491;28;20007;-19
2023/06/02 05:52:34;;;;;;;;;;;;;;;;;;5055379;28;19990;-21
2023/06/02 05:55:00;;;;;;;;;;;;;;;;;;5056504;28;20413;-20
2023/06/02 05:57:26;;;;;;;;;;;;;;;;;;5057025;28;19951;-20
2023/06/02 05:59:51;;;;;;;;;;;;;;;;;;5056317;28;19978;-20
2023/06/02 06:02:17;;;;;;;;;;;;;;;;;;5056336;28;19913;-19
2023/06/02 06:04:43;;;;;;;;;;;;;;;;;;5055793;28;19917;-20
2023/06/02 06:07:09;;;;;;;;;;;;;;;;;;5054942;28;19909;-21
2023/06/02 06:09:35;;;;;;;;;;;;;;;;;;5055492;28;20255;-20
2023/06/02 06:12:01;;;;;;;;;;;;;;;;;;5055395;28;20343;-20
2023/06/02 06:14:27;;;;;;;;;;;;;;;;;;5055017;28;20293;-20
2023/06/02 06:16:53;;;;;;;;;;;;;;;;;;5054934;28;19908;-19
2023/06/02 06:19:19;;;;;;;;;;;;;;;;;;5054821;28;19909;-21
2023/06/02 06:21:45;;;;;;;;;;;;;;;;;;5053444;28;19909;-20
2023/06/02 06:24:11;;;;;;;;;;;;;;;;;;5054621;28;20263;-20
2023/06/02 06:26:37;;;;;;;;;;;;;;;;;;5054825;28;19999;-19
2023/06/02 06:29:03;;;;;;;;;;;;;;;;;;5054768;28;19916;-20
2023/06/02 06:31:29;;;;;;;;;;;;;;;;;;5055154;28;20298;-19
2023/06/02 06:33:55;;;;;;;;;;;;;;;;;;5054704;28;19913;-20
2023/06/02 06:36:21;;;;;;;;;;;;;;;;;;5055007;28;19919;-20
2023/06/02 06:38:47;;;;;;;;;;;;;;;;;;5054953;28;20306;-21
2023/06/02 06:41:13;;;;;;;;;;;;;;;;;;5055236;28;19909;-19
2023/06/02 06:43:39;;;;;;;;;;;;;;;;;;5055121;28;20000;-25
2023/06/02 06:46:05;;;;;;;;;;;;;;;;;;5054409;28;19909;-21
2023/06/02 06:48:31;;;;;;;;;;;;;;;;;;5055468;28;19913;-19
2023/06/02 06:50:57;;;;;;;;;;;;;;;;;;5055053;28;20302;-19
2023/06/02 06:53:23;;;;;;;;;;;;;;;;;;5055013;28;20057;-19
2023/06/02 06:55:49;;;;;;;;;;;;;;;;;;5053891;28;19978;-21
2023/06/02 06:58:15;;;;;;;;;;;;;;;;;;5055212;28;19909;-19
2023/06/02 07:00:41;;;;;;;;;;;;;;;;;;5053746;28;19923;-19
2023/06/02 07:03:07;;;;;;;;;;;;;;;;;;5054661;28;19908;-20
2023/06/02 07:05:33;;;;;;;;;;;;;;;;;;5055201;28;20000;-20
2023/06/02 07:07:59;;;;;;;;;;;;;;;;;;5054745;28;19931;-21
2023/06/02 07:10:25;;;;;;;;;;;;;;;;;;5054867;28;19915;-20
2023/06/02 07:12:51;;;;;;;;;;;;;;;;;;5054552;28;19913;-19
2023/06/02 07:15:17;;;;;;;;;;;;;;;;;;5054875;28;19915;-20
2023/06/02 07:17:43;;;;;;;;;;;;;;;;;;5054586;28;19912;-20
2023/06/02 07:20:09;;;;;;;;;;;;;;;;;;5053328;28;19956;-21
2023/06/02 07:22:35;;;;;;;;;;;;;;;;;;5053845;28;19951;-21
2023/06/02 07:25:02;;;;;;;;;;;;;;;;;;5054334;28;19920;-21
2023/06/02 07:27:28;;;;;;;;;;;;;;;;;;5054232;28;20012;-20
2023/06/02 07:29:54;;;;;;;;;;;;;;;;;;5054475;28;19948;-19
2023/06/02 07:32:20;;;;;;;;;;;;;;;;;;5054469;28;19909;-19
2023/06/02 07:34:46;;;;;;;;;;;;;;;;;;5054716;28;19944;-20
2023/06/02 07:37:12;;;;;;;;;;;;;;;;;;5053957;28;20013;-21
2023/06/02 07:39:38;;;;;;;;;;;;;;;;;;5054401;28;19908;-20
2023/06/02 07:42:04;;;;;;;;;;;;;;;;;;5054257;28;19923;-19
2023/06/02 07:44:30;;;;;;;;;;;;;;;;;;5054131;28;19970;-19
2023/06/02 07:46:56;;;;;;;;;;;;;;;;;;5054131;28;20004;-19
2023/06/02 07:49:22;;;;;;;;;;;;;;;;;;5054019;28;19909;-20
2023/06/02 07:51:48;;;;;;;;;;;;;;;;;;5053972;28;19935;-21
2023/06/02 07:54:14;;;;;;;;;;;;;;;;;;5054077;28;19909;-21
2023/06/02 07:56:40;;;;;;;;;;;;;;;;;;5054458;28;20312;-21
2023/06/02 07:59:06;;;;;;;;;;;;;;;;;;5053991;28;20115;-19
2023/06/02 08:01:32;;;;;;;;;;;;;;;;;;5052914;28;19920;-19
2023/06/02 08:03:58;;;;;;;;;;;;;;;;;;5053462;28;19917;-20
2023/06/02 08:06:24;;;;;;;;;;;;;;;;;;5053603;28;19916;-20
2023/06/02 08:08:50;;;;;;;;;;;;;;;;;;5052726;28;19977;-21
2023/06/02 08:11:17;;;;;;;;;;;;;;;;;;5053914;28;20011;-20
2023/06/02 08:13:44;;;;;;;;;;;;;;;;;;5053572;28;19936;-19
2023/06/02 08:16:10;;;;;;;;;;;;;;;;;;5053774;28;19955;-19
2023/06/02 08:18:36;;;;;;;;;;;;;;;;;;5053906;28;19959;-18
2023/06/02 08:21:04;;;;;;;;;;;;;;;;;;5052732;28;19919;-25
2023/06/02 08:23:30;;;;;;;;;;;;;;;;;;5053639;28;20351;-19
2023/06/02 08:25:58;;;;;;;;;;;;;;;;;;5053982;28;20308;-20
2023/06/02 08:28:25;;;;;;;;;;;;;;;;;;5052772;28;20342;-19
2023/06/02 08:30:51;;;;;;;;;;;;;;;;;;5053613;28;19982;-20
2023/06/02 08:33:18;;;;;;;;;;;;;;;;;;5055276;28;19917;-19
2023/06/02 08:35:46;;;;;;;;;;;;;;;;;;5057603;28;19931;-19
2023/06/02 08:38:16;;;;;;;;;;;;;;;;;;5057386;28;19944;-20
2023/06/02 08:40:42;;;;;;;;;;;;;;;;;;5057567;28;19919;-19
2023/06/02 08:43:09;;;;;;;;;;;;;;;;;;5057142;28;20371;-20
2023/06/02 08:45:35;;;;;;;;;;;;;;;;;;5057020;28;19909;-21
2023/06/02 08:48:01;;;;;;;;;;;;;;;;;;5055753;28;19916;-20
2023/06/02 08:50:27;;;;;;;;;;;;;;;;;;5056929;28;19916;-23
2023/06/02 08:52:53;;;;;;;;;;;;;;;;;;5056866;28;19917;-19
2023/06/02 08:55:18;;;;;;;;;;;;;;;;;;5056980;28;19916;-19
2023/06/02 08:57:44;;;;;;;;;;;;;;;;;;5057272;28;19909;-21
2023/06/02 09:00:10;;;;;;;;;;;;;;;;;;5056478;28;20348;-20
2023/06/02 09:02:36;;;;;;;;;;;;;;;;;;5056490;28;19913;-21
2023/06/02 09:05:03;;;;;;;;;;;;;;;;;;5056197;28;19924;-19
2023/06/02 09:07:29;;;;;;;;;;;;;;;;;;5056582;28;20008;-19
2023/06/02 09:09:55;;;;;;;;;;;;;;;;;;5055266;28;19917;-19
2023/06/02 09:12:21;;;;;;;;;;;;;;;;;;5056466;28;19913;-20
2023/06/02 09:14:47;;;;;;;;;;;;;;;;;;5056234;28;19912;-20
2023/06/02 09:17:13;;;;;;;;;;;;;;;;;;5056171;28;19909;-21
2023/06/02 09:19:39;;;;;;;;;;;;;;;;;;5056356;28;20370;-21
2023/06/02 09:22:05;;;;;;;;;;;;;;;;;;5055284;28;20011;-20
2023/06/02 09:24:32;;;;;;;;;;;;;;;;;;5055670;28;19936;-19
2023/06/02 09:26:58;;;;;;;;;;;;;;;;;;5056820;28;19909;-20
2023/06/02 09:29:24;;;;;;;;;;;;;;;;;;5056910;28;19916;-19
2023/06/02 09:31:52;;;;;;;;;;;;;;;;;;5057333;28;19917;-20
2023/06/02 09:34:18;;;;;;;;;;;;;;;;;;5056893;28;20251;-19
2023/06/02 09:36:45;;;;;;;;;;;;;;;;;;5056722;28;19910;-21
2023/06/02 09:39:11;;;;;;;;;;;;;;;;;;5056688;28;19919;-21
2023/06/02 09:41:37;;;;;;;;;;;;;;;;;;5057035;28;19999;-21
2023/06/02 09:44:04;;;;;;;;;;;;;;;;;;5056138;28;20316;-20
2023/06/02 09:46:31;;;;;;;;;;;;;;;;;;5055395;28;19934;-20
2023/06/02 09:48:59;;;;;;;;;;;;;;;;;;5056472;28;19911;-20
2023/06/02 09:51:25;;;;;;;;;;;;;;;;;;5056419;28;19936;-21
2023/06/02 09:53:51;;;;;;;;;;;;;;;;;;5056407;28;19912;-21
2023/06/02 09:56:17;;;;;;;;;;;;;;;;;;5056579;28;20014;-19
2023/06/02 09:58:43;;;;;;;;;;;;;;;;;;5056250;28;19909;-19
2023/06/02 10:01:09;;;;;;;;;;;;;;;;;;5055029;28;19912;-19
2023/06/02 10:03:36;;;;;;;;;;;;;;;;;;5055799;28;19977;-20
2023/06/02 10:06:02;;;;;;;;;;;;;;;;;;5056262;28;19942;-19
2023/06/02 10:08:28;;;;;;;;;;;;;;;;;;5055925;28;20053;-20
2023/06/02 10:10:54;;;;;;;;;;;;;;;;;;5055966;28;19951;-20
2023/06/02 10:13:20;;;;;;;;;;;;;;;;;;5055797;28;19912;-20
2023/06/02 10:15:46;;;;;;;;;;;;;;;;;;5055865;28;19916;-19
2023/06/02 10:18:12;;;;;;;;;;;;;;;;;;5056272;28;19916;-18
2023/06/02 10:20:38;;;;;;;;;;;;;;;;;;5055938;28;19999;-20
2023/06/02 10:23:04;;;;;;;;;;;;;;;;;;5055553;28;19909;-20
2023/06/02 10:25:31;;;;;;;;;;;;;;;;;;5055478;28;19912;-20
2023/06/02 10:27:56;;;;;;;;;;;;;;;;;;5055375;28;19962;-20
2023/06/02 10:30:24;;;;;;;;;;;;;;;;;;5055340;28;19909;-19
2023/06/02 10:32:50;;;;;;;;;;;;;;;;;;5055880;28;20007;-20
2023/06/02 10:35:16;;;;;;;;;;;;;;;;;;5055521;28;19951;-20
2023/06/02 10:37:43;;;;;;;;;;;;;;;;;;5055810;28;19909;-20
2023/06/02 10:40:10;;;;;;;;;;;;;;;;;;5055342;28;19962;-20
2023/06/02 10:42:36;;;;;;;;;;;;;;;;;;5055625;28;20297;-20
2023/06/02 10:45:02;;;;;;;;;;;;;;;;;;5055110;28;20015;-20
2023/06/02 10:47:29;;;;;;;;;;;;;;;;;;5055544;28;19951;-21
2023/06/02 10:49:55;;;;;;;;;;;;;;;;;;5055051;28;19920;-21
2023/06/02 10:52:21;;;;;;;;;;;;;;;;;;5054973;28;19923;-21
2023/06/02 10:54:47;;;;;;;;;;;;;;;;;;5054793;28;19909;-21
2023/06/02 10:57:13;;;;;;;;;;;;;;;;;;5054844;28;19908;-22
2023/06/02 10:59:39;;;;;;;;;;;;;;;;;;5054603;28;19921;-20
2023/06/02 11:02:05;;;;;;;;;;;;;;;;;;5054681;28;19931;-20
2023/06/02 11:04:31;;;;;;;;;;;;;;;;;;5054275;28;19931;-20
2023/06/02 11:06:57;;;;;;;;;;;;;;;;;;5054786;28;19996;-19
2023/06/02 11:09:23;;;;;;;;;;;;;;;;;;5054553;28;19915;-19
2023/06/02 11:11:49;;;;;;;;;;;;;;;;;;5054528;28;19909;-20
2023/06/02 11:14:15;;;;;;;;;;;;;;;;;;5054951;28;19919;-19
2023/06/02 11:16:41;;;;;;;;;;;;;;;;;;5053452;28;20311;-19
2023/06/02 11:19:07;;;;;;;;;;;;;;;;;;5054331;28;19963;-20
2023/06/02 11:21:33;;;;;;;;;;;;;;;;;;5053256;28;20124;-20
2023/06/02 11:24:01;;;;;;;;;;;;;;;;;;5053765;28;21293;-21
2023/06/02 11:26:27;;;;;;;;;;;;;;;;;;5054941;28;19909;-20
2023/06/02 11:28:53;;;;;;;;;;;;;;;;;;5054658;28;19915;-21
2023/06/02 11:31:20;;;;;;;;;;;;;;;;;;5054613;28;20263;-20
2023/06/02 11:33:49;;;;;;;;;;;;;;;;;;5054397;28;19958;-20
2023/06/02 11:36:15;;;;;;;;;;;;;;;;;;5054595;28;19916;-20
2023/06/02 11:38:41;;;;;;;;;;;;;;;;;;5054899;28;19921;-19
2023/06/02 11:41:07;;;;;;;;;;;;;;;;;;5054513;28;20257;-19
2023/06/02 11:43:33;;;;;;;;;;;;;;;;;;5054569;28;19964;-20
2023/06/02 11:45:59;;;;;;;;;;;;;;;;;;5054845;28;20251;-20
2023/06/02 11:48:25;;;;;;;;;;;;;;;;;;5053502;28;19913;-20
2023/06/02 11:50:51;;;;;;;;;;;;;;;;;;5054525;28;19924;-20
2023/06/02 11:53:17;;;;;;;;;;;;;;;;;;5053384;28;19909;-18
2023/06/02 11:55:43;;;;;;;;;;;;;;;;;;5054681;28;20010;-19
2023/06/02 11:58:09;;;;;;;;;;;;;;;;;;5054424;28;19909;-20
2023/06/02 12:00:35;;;;;;;;;;;;;;;;;;5054313;28;20000;-20
2023/06/02 12:03:01;;;;;;;;;;;;;;;;;;5054218;28;19923;-18
2023/06/02 12:05:30;;;;;;;;;;;;;;;;;;5054940;28;19975;-20
2023/06/02 12:07:56;;;;;;;;;;;;;;;;;;5056419;28;19916;-20
2023/06/02 12:10:22;;;;;;;;;;;;;;;;;;5058615;28;19908;-20
2023/06/02 12:12:48;;;;;;;;;;;;;;;;;;5058362;28;19913;-19
2023/06/02 12:15:14;;;;;;;;;;;;;;;;;;5058401;28;19935;-19
2023/06/02 12:17:41;;;;;;;;;;;;;;;;;;5058434;28;19909;-20
2023/06/02 12:20:07;;;;;;;;;;;;;;;;;;5058233;28;19920;-19
2023/06/02 12:22:33;;;;;;;;;;;;;;;;;;5058142;28;19919;-20
2023/06/02 12:24:59;;;;;;;;;;;;;;;;;;5057996;28;20335;-20
2023/06/02 12:27:25;;;;;;;;;;;;;;;;;;5057992;28;19909;-20
2023/06/02 12:29:52;;;;;;;;;;;;;;;;;;5057980;28;19967;-19
2023/06/02 12:32:18;;;;;;;;;;;;;;;;;;5058036;28;19925;-19
2023/06/02 12:34:44;;;;;;;;;;;;;;;;;;5058237;28;19932;-23
2023/06/02 12:37:15;;;;;;;;;;;;;;;;;;5058248;28;19940;-19
2023/06/02 12:39:41;;;;;;;;;;;;;;;;;;5058004;28;19916;-19
2023/06/02 12:42:08;;;;;;;;;;;;;;;;;;5057722;28;19908;-18
2023/06/02 12:44:34;;;;;;;;;;;;;;;;;;5056259;28;19923;-21
2023/06/02 12:47:00;;;;;;;;;;;;;;;;;;5057306;28;19995;-20
2023/06/02 12:49:26;;;;;;;;;;;;;;;;;;5056487;28;19908;-20
2023/06/02 12:51:52;;;;;;;;;;;;;;;;;;5057804;28;19995;-21
2023/06/02 12:54:18;;;;;;;;;;;;;;;;;;5056178;28;20354;-21
2023/06/02 12:56:44;;;;;;;;;;;;;;;;;;5057097;28;20370;-22
2023/06/02 12:59:11;;;;;;;;;;;;;;;;;;5057020;28;19952;-20
2023/06/02 13:01:37;;;;;;;;;;;;;;;;;;5056831;28;19909;-20
2023/06/02 13:04:03;;;;;;;;;;;;;;;;;;5055792;28;19932;-19
2023/06/02 13:06:30;;;;;;;;;;;;;;;;;;5057404;28;19909;-19
2023/06/02 13:08:56;;;;;;;;;;;;;;;;;;5057386;28;19970;-19
2023/06/02 13:11:22;;;;;;;;;;;;;;;;;;5057330;28;20338;-20
2023/06/02 13:13:48;;;;;;;;;;;;;;;;;;5056649;28;19909;-20
2023/06/02 13:16:14;;;;;;;;;;;;;;;;;;5055805;28;20351;-20
2023/06/02 13:18:42;;;;;;;;;;;;;;;;;;5056775;28;19916;-20
2023/06/02 13:21:07;;;;;;;;;;;;;;;;;;5055987;28;19909;-19
2023/06/02 13:23:34;;;;;;;;;;;;;;;;;;5056632;28;20332;-21
2023/06/02 13:26:00;;;;;;;;;;;;;;;;;;5056533;28;19920;-19
2023/06/02 13:28:26;;;;;;;;;;;;;;;;;;5055753;28;19909;-18
2023/06/02 13:30:52;;;;;;;;;;;;;;;;;;5055572;28;19916;-20
2023/06/02 13:33:18;;;;;;;;;;;;;;;;;;5056530;28;19909;-21
2023/06/02 13:35:44;;;;;;;;;;;;;;;;;;5056551;28;19920;-22
2023/06/02 13:38:10;;;;;;;;;;;;;;;;;;5057338;28;19909;-20
2023/06/02 13:40:36;;;;;;;;;;;;;;;;;;5056348;28;20315;-19
2023/06/02 13:43:02;;;;;;;;;;;;;;;;;;5055403;28;19908;-20
2023/06/02 13:45:28;;;;;;;;;;;;;;;;;;5055327;28;20236;-21
2023/06/02 13:47:54;;;;;;;;;;;;;;;;;;5056327;28;19916;-20
2023/06/02 13:50:20;;;;;;;;;;;;;;;;;;5056302;28;19952;-20
2023/06/02 13:52:46;;;;;;;;;;;;;;;;;;5056276;28;19959;-20
2023/06/02 13:55:12;;;;;;;;;;;;;;;;;;5056656;28;19908;-19
2023/06/02 13:57:38;;;;;;;;;;;;;;;;;;5056268;28;20204;-21
2023/06/02 14:00:04;;;;;;;;;;;;;;;;;;5055199;28;20024;-19
2023/06/02 14:02:30;;;;;;;;;;;;;;;;;;5056080;28;20310;-21
2023/06/02 14:04:57;;;;;;;;;;;;;;;;;;5054664;28;20008;-21
2023/06/02 14:07:23;;;;;;;;;;;;;;;;;;5055876;28;19912;-25
2023/06/02 14:09:49;;;;;;;;;;;;;;;;;;5054826;28;19908;-19
2023/06/02 14:12:15;;;;;;;;;;;;;;;;;;5056197;28;19916;-20
2023/06/02 14:14:41;;;;;;;;;;;;;;;;;;5055768;28;20390;-20
2023/06/02 14:17:07;;;;;;;;;;;;;;;;;;5054672;28;19936;-20
2023/06/02 14:19:33;;;;;;;;;;;;;;;;;;5055639;28;20251;-19
2023/06/02 14:21:58;;;;;;;;;;;;;;;;;;5054475;28;19917;-19
2023/06/02 14:24:24;;;;;;;;;;;;;;;;;;5055694;28;20290;-20
2023/06/02 14:26:50;;;;;;;;;;;;;;;;;;5054361;28;19913;-20
2023/06/02 14:29:16;;;;;;;;;;;;;;;;;;5054550;28;19908;-21
2023/06/02 14:31:42;;;;;;;;;;;;;;;;;;5055339;28;19963;-21
2023/06/02 14:34:08;;;;;;;;;;;;;;;;;;5055987;28;20007;-19
2023/06/02 14:36:37;;;;;;;;;;;;;;;;;;5054583;28;19909;-20
2023/06/02 14:39:03;;;;;;;;;;;;;;;;;;5054415;28;19944;-19
2023/06/02 14:41:29;;;;;;;;;;;;;;;;;;5055806;28;20008;-20
2023/06/02 14:43:55;;;;;;;;;;;;;;;;;;5055226;28;19931;-21
2023/06/02 14:46:22;;;;;;;;;;;;;;;;;;5055493;28;19959;-20
2023/06/02 14:48:48;;;;;;;;;;;;;;;;;;5055429;28;19909;-21
2023/06/02 14:51:14;;;;;;;;;;;;;;;;;;5054901;28;20225;-22
2023/06/02 14:53:40;;;;;;;;;;;;;;;;;;5054882;28;19909;-21
2023/06/02 14:56:06;;;;;;;;;;;;;;;;;;5055578;28;19908;-20
2023/06/02 14:58:32;;;;;;;;;;;;;;;;;;5055087;28;20004;-20
2023/06/02 15:00:58;;;;;;;;;;;;;;;;;;5055033;28;20004;-20
2023/06/02 15:03:24;;;;;;;;;;;;;;;;;;5054481;28;19952;-21
2023/06/02 15:05:50;;;;;;;;;;;;;;;;;;5055126;28;19951;-20
2023/06/02 15:08:16;;;;;;;;;;;;;;;;;;5054082;28;20255;-21
2023/06/02 15:10:42;;;;;;;;;;;;;;;;;;5055093;28;19919;-19
2023/06/02 15:13:08;;;;;;;;;;;;;;;;;;5054855;28;19940;-20
2023/06/02 15:15:34;;;;;;;;;;;;;;;;;;5054425;28;20243;-21
2023/06/02 15:18:01;;;;;;;;;;;;;;;;;;5054555;28;19970;-20
2023/06/02 15:20:27;;;;;;;;;;;;;;;;;;5054438;28;20435;-20
2023/06/02 15:22:53;;;;;;;;;;;;;;;;;;5054541;28;19996;-18
2023/06/02 15:25:19;;;;;;;;;;;;;;;;;;5054209;28;19912;-20
2023/06/02 15:27:45;;;;;;;;;;;;;;;;;;5054348;28;20316;-19
2023/06/02 15:30:11;;;;;;;;;;;;;;;;;;5054339;28;19917;-19
2023/06/02 15:32:37;;;;;;;;;;;;;;;;;;5054242;28;19909;-21
2023/06/02 15:35:03;;;;;;;;;;;;;;;;;;5054189;28;19909;-19
2023/06/02 15:37:29;;;;;;;;;;;;;;;;;;5054149;28;20339;-20
2023/06/02 15:39:55;;;;;;;;;;;;;;;;;;5054637;28;20286;-20
2023/06/02 15:42:21;;;;;;;;;;;;;;;;;;5053903;28;19913;-19
2023/06/02 15:44:47;;;;;;;;;;;;;;;;;;5054375;28;19927;-20
2023/06/02 15:47:13;;;;;;;;;;;;;;;;;;5054680;28;19909;-19
2023/06/02 15:49:39;;;;;;;;;;;;;;;;;;5054425;28;19909;-19
2023/06/02 15:52:05;;;;;;;;;;;;;;;;;;5054427;28;19908;-20
2023/06/02 15:54:31;;;;;;;;;;;;;;;;;;5053392;28;19913;-21
2023/06/02 15:56:57;;;;;;;;;;;;;;;;;;5054908;28;20370;-19
2023/06/02 15:59:24;;;;;;;;;;;;;;;;;;5054478;28;20363;-20
2023/06/02 16:01:50;;;;;;;;;;;;;;;;;;5053373;28;19908;-21
2023/06/02 16:04:16;;;;;;;;;;;;;;;;;;5054572;28;20343;-20
2023/06/02 16:06:42;;;;;;;;;;;;;;;;;;5054105;28;19912;-20
2023/06/02 16:09:08;;;;;;;;;;;;;;;;;;5054222;28;20267;-21
2023/06/02 16:11:34;;;;;;;;;;;;;;;;;;5054593;28;19909;-20
2023/06/02 16:14:00;;;;;;;;;;;;;;;;;;5054500;28;20319;-20
2023/06/02 16:16:26;;;;;;;;;;;;;;;;;;5053189;28;19937;-21
2023/06/02 16:18:53;;;;;;;;;;;;;;;;;;5054133;28;19920;-21
2023/06/02 16:21:19;;;;;;;;;;;;;;;;;;5054035;28;19909;-21
2023/06/02 16:23:45;;;;;;;;;;;;;;;;;;5053881;28;20263;-21
2023/06/02 16:26:11;;;;;;;;;;;;;;;;;;5054022;28;19966;-19
2023/06/02 16:28:37;;;;;;;;;;;;;;;;;;5053818;28;20387;-19
2023/06/02 16:31:03;;;;;;;;;;;;;;;;;;5053007;28;20015;-23
2023/06/02 16:33:29;;;;;;;;;;;;;;;;;;5053987;28;19920;-20
2023/06/02 16:35:55;;;;;;;;;;;;;;;;;;5054252;28;19908;-19
2023/06/02 16:38:21;;;;;;;;;;;;;;;;;;5053721;28;19920;-20